createdAt,value
2023-04-04T00:04:30.011Z,4.89
2023-04-04T00:09:31.902Z,4.94
2023-04-04T00:14:33.819Z,4.92
2023-04-04T00:19:35.611Z,4.91
2023-04-04T00:24:37.695Z,4.87
2023-04-04T00:29:39.527Z,4.82
2023-04-04T00:34:41.589Z,4.83
2023-04-04T00:39:43.456Z,4.77
2023-04-04T00:44:45.605Z,4.78
2023-04-04T00:49:48.103Z,4.78
2023-04-04T00:54:50.176Z,4.68
2023-04-04T00:59:52.394Z,4.68
2023-04-04T01:04:54.664Z,4.71
2023-04-04T01:09:58.252Z,4.68
2023-04-04T01:15:00.451Z,4.60
2023-04-04T01:20:15.882Z,4.65
2023-04-04T01:25:30.304Z,4.65
2023-04-04T01:30:37.320Z,4.58
2023-04-04T01:35:53.418Z,4.58
2023-04-04T01:41:03.971Z,4.58
2023-04-04T01:46:08.170Z,4.55
2023-04-04T01:51:10.497Z,4.52
2023-04-04T01:56:13.264Z,4.52
2023-04-04T02:01:16.059Z,4.53
2023-04-04T02:06:17.908Z,4.56
2023-04-04T02:11:23.077Z,4.55
2023-04-04T02:16:25.801Z,4.54
2023-04-04T02:21:28.132Z,4.43
2023-04-04T02:26:30.667Z,4.42
2023-04-04T02:31:34.351Z,4.44
2023-04-04T02:36:36.832Z,4.39
2023-04-04T02:41:39.319Z,4.33
2023-04-04T02:46:42.153Z,4.35
2023-04-04T02:51:48.140Z,4.37
2023-04-04T02:56:50.195Z,4.34
2023-04-04T03:01:52.129Z,4.35
2023-04-04T03:06:54.735Z,4.04
2023-04-04T03:11:57.306Z,3.92
2023-04-04T03:16:59.694Z,3.83
2023-04-04T03:22:01.657Z,3.75
2023-04-04T03:27:07.490Z,3.67
2023-04-04T03:32:09.366Z,3.57
2023-04-04T03:37:11.433Z,3.49
2023-04-04T03:42:13.414Z,3.44
2023-04-04T03:47:15.511Z,3.40
2023-04-04T03:52:17.548Z,3.36
2023-04-04T03:57:19.757Z,3.36
2023-04-04T04:02:21.667Z,3.31
2023-04-04T04:07:23.656Z,3.31
2023-04-04T04:12:26.397Z,3.28
2023-04-04T04:17:28.289Z,3.32
2023-04-04T04:22:30.424Z,3.34
2023-04-04T04:27:32.327Z,3.29
2023-04-04T04:32:35.157Z,3.25
2023-04-04T04:37:37.286Z,3.26
2023-04-04T04:42:47.346Z,3.21
2023-04-04T04:47:53.086Z,3.17
2023-04-04T04:52:56.015Z,3.16
2023-04-04T04:57:57.906Z,3.14
2023-04-04T05:03:02.264Z,3.16
2023-04-04T05:08:12.920Z,3.17
2023-04-04T05:13:26.046Z,3.21
2023-04-04T05:18:28.535Z,3.22
2023-04-04T05:23:31.880Z,3.24
2023-04-04T05:28:34.818Z,3.61
2023-04-04T05:33:39.530Z,3.77
2023-04-04T05:39:10.579Z,3.81
2023-04-04T05:44:19.978Z,3.77
2023-04-04T05:49:22.258Z,3.76
2023-04-04T05:54:31.092Z,3.73
2023-04-04T05:59:36.809Z,3.75
2023-04-04T06:04:41.175Z,3.82
2023-04-04T06:09:45.629Z,3.92
2023-04-04T06:14:47.652Z,3.94
2023-04-04T06:19:55.823Z,4.02
2023-04-04T06:24:58.322Z,4.28
2023-04-04T06:30:02.999Z,4.58
2023-04-04T06:35:05.270Z,4.83
2023-04-04T06:40:16.353Z,4.88
2023-04-04T06:45:18.933Z,4.81
2023-04-04T06:50:23.063Z,4.81
2023-04-04T06:55:25.045Z,4.68
2023-04-04T07:00:27.151Z,4.89
2023-04-04T07:05:29.281Z,5.24
2023-04-04T07:10:31.235Z,5.60
2023-04-04T07:15:33.123Z,5.86
2023-04-04T07:20:35.275Z,5.94
2023-04-04T07:25:38.253Z,5.88
2023-04-04T07:30:40.458Z,5.95
2023-04-04T07:35:42.563Z,5.85
2023-04-04T07:40:44.450Z,5.97
2023-04-04T07:45:46.350Z,6.27
2023-04-04T07:50:48.283Z,6.36
2023-04-04T07:55:50.093Z,6.39
2023-04-04T08:00:51.895Z,6.34
2023-04-04T08:05:53.737Z,6.18
2023-04-04T08:10:55.722Z,6.22
2023-04-04T08:15:57.673Z,6.07
2023-04-04T08:20:59.514Z,5.96
2023-04-04T08:26:01.316Z,5.87
2023-04-04T08:31:04.404Z,5.80
2023-04-04T08:36:06.455Z,5.77
2023-04-04T08:41:08.841Z,5.77
2023-04-04T08:46:12.807Z,5.77
2023-04-04T08:51:17.597Z,5.99
2023-04-04T08:56:19.710Z,6.02
2023-04-04T09:01:23.135Z,6.07
2023-04-04T09:06:26.678Z,6.16
2023-04-04T09:11:31.839Z,6.32
2023-04-04T09:16:33.763Z,6.43
2023-04-04T09:21:36.021Z,6.42
2023-04-04T09:26:53.729Z,6.41
2023-04-04T09:31:55.796Z,6.39
2023-04-04T09:36:58.769Z,6.54
2023-04-04T09:42:01.586Z,6.88
2023-04-04T09:52:37.644Z,7.60
2023-04-04T09:57:41.773Z,7.85
2023-04-04T10:02:48.194Z,7.58
2023-04-04T10:07:50.123Z,7.59
2023-04-04T10:12:52.992Z,7.71
2023-04-04T10:17:55.648Z,7.56
2023-04-04T10:22:58.737Z,7.50
2023-04-04T10:28:00.702Z,7.66
2023-04-04T10:33:09.018Z,7.89
2023-04-04T10:38:12.201Z,8.01
2023-04-04T10:43:16.598Z,8.15
2023-04-04T10:48:19.951Z,8.12
2023-04-04T10:53:23.819Z,7.95
2023-04-04T10:58:26.548Z,7.94
2023-04-04T11:03:28.454Z,8.21
2023-04-04T11:08:35.607Z,8.33
2023-04-04T11:13:37.775Z,8.54
2023-04-04T11:18:40.340Z,8.71
2023-04-04T11:23:48.686Z,8.68
2023-04-04T11:28:50.584Z,8.61
2023-04-04T11:34:09.504Z,8.77
2023-04-04T11:39:30.993Z,8.77
2023-04-04T11:44:40.001Z,8.69
2023-04-04T11:49:43.177Z,9.00
2023-04-04T11:54:46.996Z,9.10
2023-04-04T11:59:51.142Z,9.31
2023-04-04T12:04:53.518Z,9.14
2023-04-04T12:09:57.029Z,9.07
2023-04-04T12:15:06.790Z,9.15
2023-04-04T12:20:23.578Z,9.22
2023-04-04T12:25:28.583Z,9.47
2023-04-04T12:30:30.771Z,9.48
2023-04-04T12:35:33.130Z,9.68
2023-04-04T12:40:37.532Z,9.67
2023-04-04T12:45:40.526Z,9.58
2023-04-04T12:50:57.840Z,9.35
2023-04-04T12:56:04.902Z,9.33
2023-04-04T13:01:07.207Z,9.48
2023-04-04T13:06:32.766Z,9.63
2023-04-04T13:12:03.744Z,9.55
2023-04-04T13:17:06.437Z,9.39
2023-04-04T13:22:09.514Z,9.63
2023-04-04T13:27:11.377Z,9.64
2023-04-04T13:32:13.173Z,9.59
2023-04-04T13:37:15.016Z,9.85
2023-04-04T13:42:16.832Z,9.82
2023-04-04T13:47:18.704Z,9.66
2023-04-04T13:52:20.698Z,9.32
2023-04-04T13:57:22.543Z,9.25
2023-04-04T14:02:25.817Z,9.22
2023-04-04T14:07:27.646Z,9.16
2023-04-04T14:12:29.453Z,9.29
2023-04-04T14:17:31.580Z,9.18
2023-04-04T14:22:34.193Z,9.06
2023-04-04T14:27:36.174Z,9.01
2023-04-04T14:32:38.021Z,9.07
2023-04-04T14:37:39.863Z,8.88
2023-04-04T14:42:41.842Z,8.69
2023-04-04T14:47:43.722Z,8.64
2023-04-04T14:52:47.880Z,8.71
2023-04-04T15:02:56.080Z,8.94
2023-04-04T15:07:57.907Z,9.02
2023-04-04T15:12:59.708Z,9.01
2023-04-04T15:18:02.880Z,8.99
2023-04-04T15:23:05.160Z,9.04
2023-04-04T15:28:06.978Z,9.08
2023-04-04T15:33:09.279Z,9.06
2023-04-04T15:38:11.158Z,9.05
2023-04-04T15:43:12.963Z,8.93
2023-04-04T15:48:14.764Z,8.86
2023-04-04T15:53:17.902Z,8.73
2023-04-04T15:58:19.777Z,8.68
2023-04-04T16:03:21.833Z,8.71
2023-04-04T16:08:23.832Z,8.65
2023-04-04T16:13:25.868Z,8.64
2023-04-04T16:18:28.130Z,8.59
2023-04-04T16:23:31.678Z,8.53
2023-04-04T16:28:33.469Z,8.41
2023-04-04T16:33:35.426Z,8.35
2023-04-04T16:38:37.373Z,8.25
2023-04-04T16:43:39.361Z,8.12
2023-04-04T16:48:41.306Z,7.98
2023-04-04T16:53:43.103Z,7.93
2023-04-04T16:58:45.824Z,7.88
2023-04-04T17:03:47.741Z,7.82
2023-04-04T17:08:49.994Z,7.74
2023-04-04T17:13:51.816Z,7.69
2023-04-04T17:18:53.832Z,7.64
2023-04-04T17:23:55.840Z,7.56
2023-04-04T17:28:57.637Z,7.45
2023-04-04T17:33:59.492Z,7.35
2023-04-04T17:39:01.444Z,7.27
2023-04-04T17:44:03.662Z,7.21
2023-04-04T17:49:07.042Z,7.18
2023-04-04T17:54:08.977Z,7.10
2023-04-04T17:59:12.833Z,7.05
2023-04-04T18:04:14.717Z,6.92
2023-04-04T18:09:18.420Z,6.82
2023-04-04T18:14:20.305Z,6.78
2023-04-04T18:19:22.150Z,6.73
2023-04-04T18:24:26.045Z,6.71
2023-04-04T18:29:30.836Z,6.73
2023-04-04T18:34:33.184Z,6.73
2023-04-04T18:39:35.075Z,6.77
2023-04-04T18:44:36.974Z,6.74
2023-04-04T18:49:38.808Z,6.68
2023-04-04T18:54:40.922Z,6.63
2023-04-04T18:59:42.752Z,6.65
2023-04-04T19:04:46.869Z,6.79
2023-04-04T19:09:50.545Z,6.83
2023-04-04T19:14:52.361Z,6.82
2023-04-04T19:19:54.197Z,6.82
2023-04-04T19:24:56.185Z,6.85
2023-04-04T19:29:57.987Z,6.85
2023-04-04T19:34:59.807Z,6.88
2023-04-04T19:40:01.794Z,6.87
2023-04-04T19:45:12.433Z,6.85
2023-04-04T19:50:34.702Z,6.77
2023-04-04T19:55:40.417Z,6.73
2023-04-04T20:00:42.599Z,6.73
2023-04-04T20:05:47.583Z,6.72
2023-04-04T20:10:51.477Z,6.64
2023-04-04T20:16:01.619Z,6.70
2023-04-04T20:21:24.369Z,6.64
2023-04-04T20:26:35.421Z,6.59
2023-04-04T20:31:51.484Z,6.50
2023-04-04T20:36:53.704Z,6.37
2023-04-04T20:41:55.990Z,6.23
2023-04-04T20:46:58.102Z,6.14
2023-04-04T20:51:59.993Z,5.81
2023-04-04T20:57:02.271Z,5.63
2023-04-04T21:02:23.470Z,5.53
2023-04-04T21:07:35.930Z,5.36
2023-04-04T21:12:37.728Z,5.07
2023-04-04T21:17:40.022Z,5.02
2023-04-04T21:22:47.058Z,5.10
2023-04-04T21:27:54.516Z,5.05
2023-04-04T21:32:56.393Z,5.11
2023-04-04T21:37:58.255Z,5.21
2023-04-04T21:43:00.072Z,5.05
2023-04-04T21:48:01.979Z,5.11
2023-04-04T21:53:03.827Z,5.19
2023-04-04T21:58:05.628Z,4.95
2023-04-04T22:03:07.578Z,4.92
2023-04-04T22:08:09.393Z,4.96
2023-04-04T22:13:14.906Z,4.99
2023-04-04T22:18:17.357Z,4.82
2023-04-04T22:23:21.769Z,4.70
2023-04-04T22:28:25.094Z,4.59
2023-04-04T22:33:29.930Z,4.70
2023-04-04T22:38:31.830Z,4.72
2023-04-04T22:43:33.803Z,4.69
2023-04-04T22:48:41.250Z,4.75
2023-04-04T22:53:44.441Z,4.81
2023-04-04T22:58:46.529Z,4.69
2023-04-04T23:03:48.416Z,4.68
2023-04-04T23:08:50.589Z,4.72
2023-04-04T23:13:53.999Z,4.77
2023-04-04T23:18:55.846Z,4.74
2023-04-04T23:23:58.424Z,4.65
2023-04-04T23:29:01.590Z,4.66
2023-04-04T23:34:03.465Z,4.62
2023-04-04T23:39:05.489Z,4.58
2023-04-04T23:44:07.395Z,4.62
2023-04-04T23:49:09.644Z,4.64
2023-04-04T23:54:13.038Z,4.63
2023-04-04T23:59:14.872Z,4.53
